Antimony, Utah
Current Conditions -  °F | °C
As of 7:53 PM on Monday 26 Jan 2015 (Local Time) from KBCE Reporting Station
Clear Clear  
Wind Chill: 24°   Ceiling: Unl
Heat Index: 29°   Visibility: 10mi
Dew Point: 24°   Wind: 5mph
Humidity: 82%   Direction: 240°WSW
Pressure: 30.32"   Gusts: NA
Location:  38.12°N, 112°W
Report Text: KBCE 270253Z AUTO 24004KT 10SM CLR M02/M04 A3032 RMK AO2 SLP263 T10171044 55000 $
Loading
Personal Weather Stations






























Interactive Weather Map New forecast layout! Learn more

10-Day Weather Forecast

Advertisements
Track Severe Weather on mobile